Terminal Aerodrome Forecast
Issued by NWS

Home | Current Version | Previous Version | Text Only | Print | Product List | Glossary Off
Versions: 1 2 3 4 5 6 7 8 9 10 11 12 13 14 15 16 17 18 19 20 21 22 23 24

000
FTUS45 KGGW 201800 AAA
TAFOLF
TAF AMD
KOLF 201850Z 2019/2118 VRB03KT P6SM BKN007 BKN120
     FM202000 VRB03KT P6SM SCT009 SCT150
     FM211200 25009KT P6SM SCT013=

USA.gov is the U.S. government's official web portal to all federal, state and local government web resources and services.